Time;durP1;ratioP1;P1;durP2;ratioP2;P2;SDS_P1;SDS_P2;PMS_P1;PMS_P2;Temp;Humidity;BMP_temperature;BMP_pressure;BME280_temperature;BME280_humidity;BME280_pressure;Samples;Min_cycle;Max_cycle;Signal;HPM_P1;HPM_P2
2022/03/07 00:02:24;;;;;;;13.35;2.75;;;24.00;99.90;;;;;;5041748;28;20191;-80
2022/03/07 00:04:55;;;;;;;17.67;2.90;;;24.00;99.90;;;;;;5044515;28;20214;-78
2022/03/07 00:07:25;;;;;;;12.75;2.70;;;24.00;99.90;;;;;;5040462;28;20247;-81
2022/03/07 00:09:56;;;;;;;11.32;2.72;;;24.00;99.90;;;;;;5045378;28;20201;-79
2022/03/07 00:12:26;;;;;;;10.77;2.63;;;24.00;99.90;;;;;;5050115;28;20218;-80
2022/03/07 00:14:59;;;;;;;12.32;2.67;;;23.90;99.90;;;;;;5036894;28;20712;-81
2022/03/07 00:17:30;;;;;;;9.82;2.50;;;23.90;99.90;;;;;;5042906;28;20307;-77
2022/03/07 00:20:00;;;;;;;11.80;2.30;;;23.80;99.90;;;;;;5056172;28;20216;-79
2022/03/07 00:22:31;;;;;;;9.60;2.17;;;23.70;99.90;;;;;;5052495;28;20190;-79
2022/03/07 00:25:01;;;;;;;13.32;2.50;;;23.70;99.90;;;;;;5044904;28;20218;-79
2022/03/07 00:27:32;;;;;;;15.55;3.00;;;23.70;99.90;;;;;;5045811;28;20708;-79
2022/03/07 00:30:05;;;;;;;10.13;2.47;;;23.70;99.90;;;;;;5044150;28;20198;-79
2022/03/07 00:32:35;;;;;;;14.77;2.85;;;23.60;99.90;;;;;;5036076;28;20233;-79
2022/03/07 00:35:07;;;;;;;12.27;2.55;;;23.60;99.90;;;;;;5043405;28;20202;-80
2022/03/07 00:37:37;;;;;;;11.55;2.35;;;23.60;99.90;;;;;;5051252;28;20296;-81
2022/03/07 00:40:10;;;;;;;13.48;2.63;;;23.60;99.90;;;;;;5043479;28;20186;-80
2022/03/07 00:42:41;;;;;;;10.48;2.55;;;23.60;99.90;;;;;;5055563;28;20197;-80
2022/03/07 00:45:14;;;;;;;12.05;2.47;;;23.60;99.90;;;;;;5043310;28;20213;-79
2022/03/07 00:47:44;;;;;;;13.38;2.40;;;23.60;99.90;;;;;;5043257;28;20684;-80
2022/03/07 00:50:15;;;;;;;12.45;2.28;;;23.60;99.90;;;;;;5043135;28;20235;-80
2022/03/07 00:52:46;;;;;;;14.38;2.78;;;23.60;99.90;;;;;;5044742;28;20190;-81
2022/03/07 00:55:16;;;;;;;17.75;2.67;;;23.60;99.90;;;;;;5045698;28;20197;-80
2022/03/07 00:57:47;;;;;;;12.25;2.20;;;23.60;99.90;;;;;;5047169;28;20198;-80
2022/03/07 01:00:19;;;;;;;10.90;2.03;;;23.50;99.90;;;;;;5044826;28;20193;-80
2022/03/07 01:02:50;;;;;;;10.40;1.63;;;23.30;99.90;;;;;;5041170;28;20190;-80
2022/03/07 01:05:21;;;;;;;9.80;1.58;;;23.30;99.90;;;;;;5043401;28;20210;-80
2022/03/07 01:07:51;;;;;;;9.43;1.90;;;23.20;99.90;;;;;;5046252;28;20190;-79
2022/03/07 01:10:22;;;;;;;7.30;1.70;;;23.10;99.90;;;;;;5041600;28;20194;-80
2022/03/07 01:12:53;;;;;;;10.93;2.20;;;23.00;99.90;;;;;;5043663;28;20634;-81
2022/03/07 01:15:26;;;;;;;11.88;1.85;;;23.00;99.90;;;;;;5046474;28;20216;-80
2022/03/07 01:17:59;;;;;;;9.93;1.67;;;23.10;99.90;;;;;;5044293;28;20245;-80
2022/03/07 01:20:30;;;;;;;4.65;1.50;;;23.10;99.90;;;;;;5041891;28;20217;-80
2022/03/07 01:23:01;;;;;;;8.00;1.80;;;23.20;99.90;;;;;;5044702;28;20248;-80
2022/03/07 01:25:31;;;;;;;6.75;1.90;;;23.20;99.90;;;;;;5047648;28;20222;-80
2022/03/07 01:28:02;;;;;;;5.40;1.73;;;23.20;99.90;;;;;;5042123;28;20256;-80
2022/03/07 01:30:35;;;;;;;10.68;2.08;;;23.30;99.90;;;;;;5046012;28;20186;-80
2022/03/07 01:33:05;;;;;;;9.13;2.00;;;23.30;99.90;;;;;;5049061;28;20190;-80
2022/03/07 01:35:36;;;;;;;7.75;1.73;;;23.40;99.90;;;;;;5043395;28;20190;-80
2022/03/07 01:38:07;;;;;;;6.10;1.73;;;23.50;99.90;;;;;;5054587;28;20230;-80
2022/03/07 01:40:37;;;;;;;6.45;1.75;;;23.50;99.90;;;;;;5045483;28;20275;-79
2022/03/07 01:43:08;;;;;;;8.95;1.92;;;23.70;99.90;;;;;;5046320;28;20703;-80
2022/03/07 01:45:43;;;;;;;8.30;1.80;;;23.70;99.90;;;;;;5041497;28;20210;-80
2022/03/07 01:48:14;;;;;;;4.22;1.60;;;23.60;99.90;;;;;;5044974;28;20244;-80
2022/03/07 01:50:45;;;;;;;6.80;2.00;;;23.70;99.90;;;;;;5051780;28;20273;-79
2022/03/07 01:53:16;;;;;;;9.38;1.95;;;23.90;99.90;;;;;;5049637;28;20194;-80
2022/03/07 01:55:47;;;;;;;6.35;1.80;;;24.00;99.90;;;;;;5039278;28;20190;-79
2022/03/07 01:58:17;;;;;;;7.25;1.90;;;24.10;99.90;;;;;;5040739;28;20240;-79
2022/03/07 02:00:50;;;;;;;8.57;2.20;;;24.10;99.90;;;;;;5042041;28;20232;-80
2022/03/07 02:03:20;;;;;;;8.60;2.40;;;24.20;99.90;;;;;;5044046;28;20197;-79
2022/03/07 02:05:51;;;;;;;12.52;2.05;;;24.30;99.90;;;;;;5041392;28;20264;-79
2022/03/07 02:08:22;;;;;;;11.68;2.33;;;24.30;99.90;;;;;;5045294;28;20190;-79
2022/03/07 02:10:53;;;;;;;9.88;2.53;;;24.40;99.90;;;;;;5045752;28;20243;-79
2022/03/07 02:13:23;;;;;;;9.60;2.40;;;24.50;99.90;;;;;;5042869;28;20630;-79
2022/03/07 02:16:00;;;;;;;11.82;2.63;;;24.50;99.90;;;;;;5038824;28;20243;-80
2022/03/07 02:18:30;;;;;;;13.23;2.47;;;24.50;99.90;;;;;;5048731;28;20181;-80
2022/03/07 02:21:10;;;;;;;14.52;2.67;;;24.40;99.90;;;;;;5041288;28;20206;-80
2022/03/07 02:23:42;;;;;;;12.35;2.90;;;24.50;99.90;;;;;;5037088;28;20194;-79
2022/03/07 02:26:14;;;;;;;18.02;3.30;;;24.50;99.90;;;;;;5034734;28;20214;-79
2022/03/07 02:28:46;;;;;;;17.17;3.13;;;24.40;99.90;;;;;;5042868;28;20189;-79
2022/03/07 02:31:20;;;;;;;14.38;2.90;;;24.30;99.90;;;;;;5043899;28;20565;-80
2022/03/07 02:33:51;;;;;;;11.35;3.00;;;24.40;99.90;;;;;;5041406;28;20186;-79
2022/03/07 02:36:22;;;;;;;13.20;2.70;;;24.40;99.90;;;;;;5043760;28;20267;-80
2022/03/07 02:38:55;;;;;;;13.60;3.00;;;24.40;99.90;;;;;;5040863;28;20271;-81
2022/03/07 02:41:25;;;;;;;15.48;3.08;;;24.40;99.90;;;;;;5044765;28;20704;-80
2022/03/07 02:43:56;;;;;;;20.95;3.72;;;24.40;99.90;;;;;;5047646;28;20642;-80
2022/03/07 02:46:27;;;;;;;22.48;4.93;;;24.50;99.90;;;;;;5042285;28;20613;-79
2022/03/07 02:48:57;;;;;;;22.15;3.38;;;24.60;99.90;;;;;;5046364;28;20202;-79
2022/03/07 02:51:28;;;;;;;15.07;2.80;;;24.70;99.90;;;;;;5041173;28;20190;-79
2022/03/07 02:54:00;;;;;;;9.05;2.17;;;24.80;99.90;;;;;;5039956;28;20193;-80
2022/03/07 02:56:31;;;;;;;11.13;2.22;;;24.80;99.90;;;;;;5041647;28;20240;-80
2022/03/07 02:59:02;;;;;;;16.67;2.40;;;24.80;99.90;;;;;;5045636;28;20627;-80
2022/03/07 03:01:32;;;;;;;17.70;2.80;;;24.80;99.90;;;;;;5036455;28;20244;-79
2022/03/07 03:04:03;;;;;;;13.07;2.10;;;25.00;99.90;;;;;;5040449;28;20193;-80
2022/03/07 03:06:34;;;;;;;10.38;2.42;;;25.20;99.90;;;;;;5049145;28;20221;-80
2022/03/07 03:09:07;;;;;;;14.15;2.53;;;25.30;99.90;;;;;;5042503;28;20187;-80
2022/03/07 03:11:37;;;;;;;10.15;2.03;;;25.30;99.90;;;;;;5041310;28;20213;-80
2022/03/07 03:14:08;;;;;;;11.02;2.40;;;25.30;99.90;;;;;;5037103;28;20192;-79
2022/03/07 03:16:39;;;;;;;16.73;2.85;;;25.40;99.90;;;;;;5045404;28;20192;-79
2022/03/07 03:19:09;;;;;;;13.10;2.45;;;25.60;99.90;;;;;;5033204;28;20195;-79
2022/03/07 03:21:40;;;;;;;9.40;1.63;;;25.70;99.90;;;;;;5040964;28;20186;-81
2022/03/07 03:24:12;;;;;;;7.57;1.63;;;25.70;99.90;;;;;;5043897;28;20213;-81
2022/03/07 03:26:43;;;;;;;9.63;1.48;;;25.60;99.90;;;;;;5044714;28;20213;-82
2022/03/07 03:29:14;;;;;;;5.93;1.27;;;25.40;99.90;;;;;;5044442;28;20319;-82
2022/03/07 03:31:44;;;;;;;8.23;1.48;;;25.30;99.90;;;;;;5045247;28;20549;-82
2022/03/07 03:34:15;;;;;;;10.10;2.00;;;25.40;99.90;;;;;;5040396;28;20672;-81
2022/03/07 03:36:46;;;;;;;14.45;2.20;;;25.50;99.90;;;;;;5036851;28;20599;-82
2022/03/07 03:39:18;;;;;;;8.52;1.90;;;25.60;99.90;;;;;;5043891;28;20280;-82
2022/03/07 03:41:49;;;;;;;10.57;1.83;;;25.70;99.90;;;;;;5032916;28;20190;-81
2022/03/07 03:44:19;;;;;;;10.38;1.70;;;25.70;99.90;;;;;;5047467;28;20190;-80
2022/03/07 03:46:50;;;;;;;12.18;2.00;;;25.80;99.90;;;;;;5056788;28;20677;-80
2022/03/07 03:49:21;;;;;;;13.10;1.80;;;25.70;99.90;;;;;;5056742;28;20196;-81
2022/03/07 03:51:51;;;;;;;13.35;2.08;;;25.70;99.90;;;;;;5056489;28;20650;-82
2022/03/07 03:54:24;;;;;;;19.13;2.47;;;25.80;99.90;;;;;;5056696;28;20254;-82
2022/03/07 03:56:55;;;;;;;15.13;2.20;;;25.80;99.90;;;;;;5039744;28;20216;-80
2022/03/07 03:59:26;;;;;;;14.65;2.20;;;25.70;99.90;;;;;;5036609;28;20194;-82
2022/03/07 04:01:56;;;;;;;14.23;2.67;;;25.60;99.90;;;;;;5036883;28;20186;-79
2022/03/07 04:04:27;;;;;;;15.40;2.70;;;25.50;99.90;;;;;;5036594;28;20256;-81
2022/03/07 04:06:58;;;;;;;15.40;2.50;;;25.30;99.90;;;;;;5036203;28;20756;-82
2022/03/07 04:09:30;;;;;;;17.77;2.75;;;25.20;99.90;;;;;;5036537;28;20190;-81
2022/03/07 04:12:01;;;;;;;13.77;2.40;;;25.20;99.90;;;;;;5047438;28;20716;-81
2022/03/07 04:14:31;;;;;;;9.60;2.20;;;25.20;99.90;;;;;;5036715;28;20232;-82
2022/03/07 04:17:02;;;;;;;13.10;2.63;;;25.20;99.90;;;;;;5043013;28;20200;-78
2022/03/07 04:19:32;;;;;;;17.27;2.50;;;25.40;99.90;;;;;;5056175;28;20641;-80
2022/03/07 04:22:03;;;;;;;17.13;3.20;;;25.60;99.90;;;;;;5055892;28;20189;-81
2022/03/07 04:24:36;;;;;;;15.32;2.25;;;25.60;99.90;;;;;;5056115;28;20564;-81
2022/03/07 04:27:07;;;;;;;17.67;2.72;;;25.60;99.90;;;;;;5055866;28;20780;-82
2022/03/07 04:29:38;;;;;;;14.95;2.22;;;25.60;99.90;;;;;;5045709;28;20244;-79
2022/03/07 04:32:09;;;;;;;13.10;2.30;;;25.60;99.90;;;;;;5036017;28;20190;-81
2022/03/07 04:34:39;;;;;;;21.25;3.03;;;25.60;99.90;;;;;;5035801;28;20194;-81
2022/03/07 04:37:10;;;;;;;16.08;2.20;;;25.70;99.90;;;;;;5035833;28;20201;-81
2022/03/07 04:39:42;;;;;;;12.82;1.85;;;25.60;99.90;;;;;;5035957;28;20197;-81
2022/03/07 04:42:13;;;;;;;10.43;1.90;;;25.60;99.90;;;;;;5035852;28;20201;-81
2022/03/07 04:44:44;;;;;;;11.23;2.00;;;25.50;99.90;;;;;;5035876;28;20267;-81
2022/03/07 04:47:14;;;;;;;13.85;2.15;;;25.40;99.90;;;;;;5035647;28;20276;-80
2022/03/07 04:49:45;;;;;;;15.20;2.08;;;25.40;99.90;;;;;;5035603;28;20194;-78
2022/03/07 04:52:16;;;;;;;17.23;2.70;;;25.30;99.90;;;;;;5035718;28;20197;-80
2022/03/07 04:54:48;;;;;;;14.15;2.50;;;25.30;99.90;;;;;;5035532;28;20190;-81
2022/03/07 04:57:19;;;;;;;17.95;2.28;;;25.40;99.90;;;;;;5035673;28;20296;-81
2022/03/07 04:59:49;;;;;;;17.48;2.70;;;25.40;99.90;;;;;;5035557;28;20643;-81
2022/03/07 05:02:20;;;;;;;13.00;2.30;;;25.40;99.90;;;;;;5035465;28;20195;-81
2022/03/07 05:04:51;;;;;;;13.45;2.08;;;25.50;99.90;;;;;;5035255;28;20658;-81
2022/03/07 05:07:22;;;;;;;10.95;1.83;;;25.50;99.90;;;;;;5035244;28;20618;-81
2022/03/07 05:09:54;;;;;;;11.88;2.10;;;25.50;99.90;;;;;;5035399;28;20202;-81
2022/03/07 05:12:25;;;;;;;11.40;1.90;;;25.50;99.90;;;;;;5047313;28;20222;-81
2022/03/07 05:14:55;;;;;;;12.10;1.88;;;25.50;99.90;;;;;;5035308;28;20198;-81
2022/03/07 05:17:26;;;;;;;11.65;1.83;;;25.50;99.90;;;;;;5045560;28;20193;-81
2022/03/07 05:19:57;;;;;;;14.88;2.20;;;25.50;99.90;;;;;;5053282;28;20189;-81
2022/03/07 05:22:27;;;;;;;11.90;2.00;;;25.50;99.90;;;;;;5044252;28;20194;-82
2022/03/07 05:25:00;;;;;;;13.20;1.95;;;25.50;99.90;;;;;;5055028;28;20194;-81
2022/03/07 05:27:30;;;;;;;13.75;1.85;;;25.50;99.90;;;;;;5037383;28;20214;-82
2022/03/07 05:30:01;;;;;;;13.65;1.77;;;25.50;99.90;;;;;;5035092;28;20191;-82
2022/03/07 05:32:32;;;;;;;15.25;2.00;;;25.40;99.90;;;;;;5034781;28;20194;-81
2022/03/07 05:35:03;;;;;;;10.35;2.00;;;25.40;99.90;;;;;;5034991;28;20190;-82
2022/03/07 05:37:34;;;;;;;13.77;2.17;;;25.40;99.90;;;;;;5034631;28;20237;-81
2022/03/07 05:40:08;;;;;;;10.20;1.88;;;25.40;99.90;;;;;;5035167;28;20190;-81
2022/03/07 05:42:40;;;;;;;12.32;2.20;;;25.40;99.90;;;;;;5034666;28;20274;-81
2022/03/07 05:45:12;;;;;;;13.88;2.17;;;25.30;99.90;;;;;;5034696;28;20248;-82
2022/03/07 05:47:44;;;;;;;16.90;3.80;;;25.40;99.90;;;;;;5034347;28;20217;-82
2022/03/07 05:50:15;;;;;;;15.13;3.55;;;25.40;99.90;;;;;;5034667;28;20203;-81
2022/03/07 05:52:46;;;;;;;17.00;3.03;;;25.40;99.90;;;;;;5034556;28;20232;-81
2022/03/07 05:55:18;;;;;;;14.65;2.70;;;25.30;99.90;;;;;;5034511;28;20577;-83
2022/03/07 05:57:49;;;;;;;20.40;2.72;;;25.30;99.90;;;;;;5034404;28;20190;-82
2022/03/07 06:00:20;;;;;;;18.58;2.75;;;25.30;99.90;;;;;;5034434;28;20193;-82
2022/03/07 06:02:51;;;;;;;18.08;2.72;;;25.20;99.90;;;;;;5034172;28;20186;-83
2022/03/07 06:05:21;;;;;;;15.32;2.40;;;25.20;99.90;;;;;;5034231;28;20194;-83
2022/03/07 06:07:52;;;;;;;18.52;2.70;;;25.20;99.90;;;;;;5033676;28;20272;-82
2022/03/07 06:10:25;;;;;;;21.20;3.05;;;25.10;99.90;;;;;;5035324;28;20190;-83
2022/03/07 06:12:55;;;;;;;18.50;2.58;;;25.00;99.90;;;;;;5045211;28;20631;-83
2022/03/07 06:15:26;;;;;;;19.60;2.63;;;25.00;99.90;;;;;;5034248;28;20638;-81
2022/03/07 06:17:58;;;;;;;21.90;3.45;;;25.00;99.90;;;;;;5048520;28;20186;-83
2022/03/07 06:20:30;;;;;;;21.17;2.70;;;25.00;99.90;;;;;;5053919;28;20661;-82
2022/03/07 06:23:00;;;;;;;20.23;2.70;;;24.90;99.90;;;;;;5053896;28;20194;-82
2022/03/07 06:25:33;;;;;;;17.17;2.47;;;24.90;99.90;;;;;;5053777;28;20232;-83
2022/03/07 06:28:04;;;;;;;22.15;2.95;;;24.90;99.90;;;;;;5053859;28;20225;-83
2022/03/07 06:30:35;;;;;;;19.92;3.20;;;24.80;99.90;;;;;;5034991;28;20195;-84
2022/03/07 06:33:06;;;;;;;21.08;2.95;;;24.80;99.90;;;;;;5033883;28;20201;-83
2022/03/07 06:35:37;;;;;;;21.50;2.70;;;24.80;99.90;;;;;;5033833;28;20190;-83
2022/03/07 06:38:07;;;;;;;22.58;3.17;;;24.70;99.90;;;;;;5033538;28;20318;-84
2022/03/07 06:40:40;;;;;;;23.95;2.95;;;24.70;99.90;;;;;;5033679;28;20195;-81
2022/03/07 06:43:11;;;;;;;20.08;2.63;;;24.70;99.90;;;;;;5033733;28;20194;-85
2022/03/07 06:45:41;;;;;;;21.40;2.78;;;24.60;99.90;;;;;;5033368;28;20191;-84
2022/03/07 06:48:12;;;;;;;21.00;3.30;;;24.60;99.90;;;;;;5033592;28;20624;-85
2022/03/07 06:50:43;;;;;;;21.42;3.33;;;24.60;99.90;;;;;;5033680;28;20190;-85
2022/03/07 06:53:14;;;;;;;20.33;2.70;;;24.60;99.90;;;;;;5033797;28;20197;-84
2022/03/07 06:55:48;;;;;;;20.50;2.85;;;24.60;99.90;;;;;;5033426;28;20634;-88
2022/03/07 06:58:19;;;;;;;26.98;3.25;;;24.50;99.90;;;;;;5033469;28;20201;-86
2022/03/07 07:00:50;;;;;;;20.05;2.88;;;24.50;99.90;;;;;;5033463;28;20241;-84
2022/03/07 07:03:20;;;;;;;22.00;3.20;;;24.40;99.90;;;;;;5033389;28;20196;-83
2022/03/07 07:05:51;;;;;;;19.63;3.65;;;24.30;99.90;;;;;;5041355;28;20673;-86
2022/03/07 07:08:22;;;;;;;22.10;4.00;;;24.30;99.90;;;;;;5053225;28;20236;-84
2022/03/07 07:10:54;;;;;;;20.42;3.50;;;24.20;99.90;;;;;;5050148;28;20217;-85
2022/03/07 07:13:25;;;;;;;20.38;2.85;;;24.10;99.90;;;;;;5044297;28;20201;-86
2022/03/07 07:15:56;;;;;;;21.70;3.55;;;24.10;99.90;;;;;;5052971;28;20199;-85
2022/03/07 07:18:27;;;;;;;18.02;3.08;;;24.10;99.90;;;;;;5033400;28;20191;-89
2022/03/07 07:20:58;;;;;;;26.02;4.65;;;24.00;99.90;;;;;;5033133;28;20190;-85
2022/03/07 07:23:29;;;;;;;23.83;3.90;;;24.00;99.90;;;;;;5033241;28;20195;-84
2022/03/07 07:26:02;;;;;;;20.33;3.28;;;24.00;99.90;;;;;;5033145;28;20226;-84
2022/03/07 07:28:32;;;;;;;14.15;3.53;;;23.90;99.90;;;;;;5034777;28;20230;-81
2022/03/07 07:31:03;;;;;;;18.42;3.50;;;23.80;99.90;;;;;;5053337;28;20248;-84
2022/03/07 07:33:34;;;;;;;14.85;3.20;;;23.80;99.90;;;;;;5053065;28;20695;-87
2022/03/07 07:36:05;;;;;;;18.23;3.17;;;23.80;99.90;;;;;;5053042;28;20208;-85
2022/03/07 07:38:38;;;;;;;19.92;3.70;;;23.70;99.90;;;;;;5052898;28;20233;-86
2022/03/07 07:41:10;;;;;;;15.68;3.10;;;23.60;99.90;;;;;;5052897;28;20696;-81
2022/03/07 07:43:41;;;;;;;10.25;2.50;;;23.50;99.90;;;;;;5052800;28;20569;-82
2022/03/07 07:46:12;;;;;;;7.82;1.52;;;23.50;99.90;;;;;;5052845;28;20193;-82
2022/03/07 07:48:43;;;;;;;6.53;1.40;;;23.40;99.90;;;;;;5052775;28;20279;-83
2022/03/07 07:51:14;;;;;;;10.60;1.95;;;23.30;99.90;;;;;;5053147;28;20281;-83
2022/03/07 07:53:44;;;;;;;18.35;2.30;;;23.30;99.90;;;;;;5053007;28;20197;-83
2022/03/07 07:56:17;;;;;;;13.57;2.78;;;23.30;99.90;;;;;;5052781;28;20194;-81
2022/03/07 07:58:48;;;;;;;9.70;2.70;;;23.20;99.90;;;;;;5052561;28;20194;-82
2022/03/07 08:01:19;;;;;;;25.75;3.22;;;23.10;99.90;;;;;;5052686;28;20201;-86
2022/03/07 08:03:49;;;;;;;13.95;2.15;;;23.00;99.90;;;;;;5052707;28;20601;-80
2022/03/07 08:06:20;;;;;;;8.20;1.90;;;23.00;99.90;;;;;;5040245;28;20650;-80
2022/03/07 08:08:53;;;;;;;7.30;2.40;;;23.00;99.90;;;;;;5032684;28;20247;-80
2022/03/07 08:11:26;;;;;;;9.13;2.45;;;22.90;99.90;;;;;;5039497;28;20221;-82
2022/03/07 08:13:56;;;;;;;11.15;2.47;;;22.80;99.90;;;;;;5036785;28;20370;-85
2022/03/07 08:16:27;;;;;;;10.02;1.95;;;22.70;99.90;;;;;;5035466;28;20206;-78
2022/03/07 08:18:57;;;;;;;8.07;2.60;;;22.50;99.90;;;;;;5052636;28;20217;-76
2022/03/07 08:21:28;;;;;;;6.38;2.80;;;22.40;99.90;;;;;;5052627;28;20239;-78
2022/03/07 08:24:00;;;;;;;4.15;2.03;;;22.40;99.90;;;;;;5052561;28;20189;-79
2022/03/07 08:26:34;;;;;;;3.50;1.20;;;22.40;99.90;;;;;;5052546;28;20193;-78
2022/03/07 08:29:04;;;;;;;4.18;1.05;;;22.40;99.90;;;;;;5042410;28;20226;-80
2022/03/07 08:31:35;;;;;;;5.18;0.90;;;22.40;99.90;;;;;;5053438;28;20194;-80
2022/03/07 08:34:05;;;;;;;5.45;1.23;;;22.40;99.90;;;;;;5050837;28;20244;-80
2022/03/07 08:36:36;;;;;;;9.02;1.65;;;22.40;99.90;;;;;;5036119;28;20565;-80
2022/03/07 08:39:07;;;;;;;6.82;1.25;;;22.40;99.90;;;;;;5035864;28;20241;-80
2022/03/07 08:41:39;;;;;;;8.32;2.17;;;22.50;99.90;;;;;;5035794;28;20201;-79
2022/03/07 08:44:10;;;;;;;9.07;1.77;;;22.50;99.90;;;;;;5035940;28;20202;-79
2022/03/07 08:46:41;;;;;;;8.00;1.70;;;22.60;99.90;;;;;;5044279;28;20185;-79
2022/03/07 08:49:11;;;;;;;6.13;2.03;;;22.60;99.90;;;;;;5055619;28;20224;-79
2022/03/07 08:51:43;;;;;;;9.00;2.28;;;22.60;99.90;;;;;;5055699;28;20189;-79
2022/03/07 08:54:14;;;;;;;7.18;2.03;;;22.60;99.90;;;;;;5055594;28;20606;-79
2022/03/07 08:56:47;;;;;;;8.20;2.00;;;22.70;99.90;;;;;;5055443;28;20216;-79
2022/03/07 08:59:17;;;;;;;11.10;2.20;;;22.70;99.90;;;;;;5046926;28;20194;-79
2022/03/07 09:01:48;;;;;;;10.20;2.15;;;22.70;99.90;;;;;;5040687;28;20189;-81
2022/03/07 09:04:20;;;;;;;8.57;2.55;;;22.70;99.90;;;;;;5043003;28;20187;-80
2022/03/07 09:06:50;;;;;;;10.15;2.70;;;22.70;99.90;;;;;;5045161;28;20244;-80
2022/03/07 09:09:21;;;;;;;11.20;2.60;;;22.70;99.90;;;;;;5053255;28;20610;-80
2022/03/07 09:11:54;;;;;;;10.15;2.67;;;22.80;99.90;;;;;;5045854;28;20213;-79
2022/03/07 09:14:24;;;;;;;8.20;2.30;;;22.80;99.90;;;;;;5037645;28;20190;-80
2022/03/07 09:16:55;;;;;;;8.85;2.17;;;22.80;99.90;;;;;;5044796;28;20190;-80
2022/03/07 09:19:26;;;;;;;6.43;1.88;;;22.70;99.90;;;;;;5043030;28;20196;-80
2022/03/07 09:21:57;;;;;;;8.55;1.95;;;22.70;99.90;;;;;;5044062;28;20193;-80
2022/03/07 09:24:27;;;;;;;9.25;2.13;;;22.70;99.90;;;;;;5043690;28;20186;-79
2022/03/07 09:27:00;;;;;;;6.07;1.88;;;22.70;99.90;;;;;;5040736;28;20190;-80
2022/03/07 09:29:31;;;;;;;5.13;1.75;;;22.70;99.90;;;;;;5041538;28;20221;-79
2022/03/07 09:32:02;;;;;;;6.50;1.73;;;22.70;99.90;;;;;;5046777;28;20190;-79
2022/03/07 09:34:32;;;;;;;4.70;1.40;;;22.60;99.90;;;;;;5050468;28;20190;-78
2022/03/07 09:37:04;;;;;;;5.13;1.77;;;22.60;99.90;;;;;;5040405;28;20197;-79
2022/03/07 09:39:35;;;;;;;6.35;1.50;;;22.60;99.90;;;;;;5043592;28;20224;-79
2022/03/07 09:42:09;;;;;;;6.18;1.60;;;22.60;99.90;;;;;;5052267;28;20186;-79
2022/03/07 09:44:39;;;;;;;7.22;1.42;;;22.50;99.90;;;;;;5039039;28;20201;-78
2022/03/07 09:47:10;;;;;;;5.68;1.55;;;22.50;99.90;;;;;;5046504;28;20615;-79
2022/03/07 09:49:41;;;;;;;4.28;1.60;;;22.60;99.90;;;;;;5041645;28;20217;-79
2022/03/07 09:52:13;;;;;;;5.63;1.70;;;22.50;99.90;;;;;;5054600;28;20194;-80
2022/03/07 09:54:44;;;;;;;4.10;1.20;;;22.50;99.90;;;;;;5049245;28;20642;-79
2022/03/07 09:57:16;;;;;;;4.95;1.20;;;22.50;99.90;;;;;;5049036;28;20243;-79
2022/03/07 09:59:47;;;;;;;6.53;1.50;;;22.50;99.90;;;;;;5038516;28;20203;-79
2022/03/07 10:02:22;;;;;;;5.05;1.48;;;22.50;99.90;;;;;;5045466;28;20706;-78
2022/03/07 10:04:54;;;;;;;2.92;1.40;;;22.50;99.90;;;;;;5046765;28;20193;-79
2022/03/07 10:07:24;;;;;;;4.20;1.30;;;22.50;99.90;;;;;;5046979;28;20193;-79
2022/03/07 10:10:06;;;;;;;4.35;1.23;;;22.50;99.90;;;;;;5039804;28;20642;-79
2022/03/07 10:12:48;;;;;;;5.32;1.60;;;22.50;99.90;;;;;;5041507;28;20244;-79
2022/03/07 10:15:20;;;;;;;2.78;1.48;;;22.50;99.90;;;;;;5048004;28;20186;-79
2022/03/07 10:17:53;;;;;;;5.07;1.52;;;22.50;99.90;;;;;;5042388;28;20196;-78
2022/03/07 10:20:25;;;;;;;5.30;1.90;;;22.50;99.90;;;;;;5045129;28;20541;-81
2022/03/07 10:22:57;;;;;;;6.75;2.08;;;22.60;99.90;;;;;;5040042;28;20190;-79
2022/03/07 10:25:28;;;;;;;4.53;1.85;;;22.50;99.90;;;;;;5042859;28;20194;-80
2022/03/07 10:28:03;;;;;;;6.47;2.00;;;22.50;99.90;;;;;;5045728;28;20222;-79
2022/03/07 10:30:35;;;;;;;6.25;2.42;;;22.50;99.90;;;;;;5045770;28;20632;-79
2022/03/07 10:33:08;;;;;;;4.97;2.10;;;22.50;99.90;;;;;;5038604;28;20213;-80
2022/03/07 10:35:40;;;;;;;6.75;2.40;;;22.50;99.90;;;;;;5044090;28;20205;-79
2022/03/07 10:38:12;;;;;;;5.75;1.90;;;22.60;99.90;;;;;;5038206;28;20229;-79
2022/03/07 10:40:47;;;;;;;7.05;2.38;;;22.60;99.90;;;;;;5040479;28;20194;-79
2022/03/07 10:43:23;;;;;;;6.47;2.25;;;22.60;99.90;;;;;;5043606;28;20209;-79
2022/03/07 10:45:55;;;;;;;4.75;2.08;;;22.60;99.90;;;;;;5045514;28;20186;-79
2022/03/07 10:48:30;;;;;;;6.53;2.10;;;22.60;99.90;;;;;;5043779;28;20220;-80
2022/03/07 10:51:01;;;;;;;7.40;2.30;;;22.60;99.90;;;;;;5040569;28;20201;-79
2022/03/07 10:53:41;;;;;;;9.48;2.60;;;22.60;99.90;;;;;;5053224;28;20608;-79
2022/03/07 10:56:15;;;;;;;6.80;2.40;;;22.60;99.90;;;;;;5041357;28;20198;-80
2022/03/07 10:58:53;;;;;;;7.55;2.33;;;22.60;99.90;;;;;;5033896;28;20184;-80
2022/03/07 11:01:34;;;;;;;9.63;2.65;;;22.60;99.90;;;;;;5044562;28;20190;-80
2022/03/07 11:04:05;;;;;;;5.40;2.10;;;22.60;99.90;;;;;;5034513;28;20603;-80
2022/03/07 11:06:36;;;;;;;6.25;2.00;;;22.60;99.90;;;;;;5039552;28;20556;-79
2022/03/07 11:09:06;;;;;;;5.82;2.20;;;22.60;99.90;;;;;;5039153;28;20674;-79
2022/03/07 11:11:37;;;;;;;10.00;2.03;;;22.60;99.90;;;;;;5039209;28;20209;-80
2022/03/07 11:14:11;;;;;;;7.88;1.98;;;22.60;99.90;;;;;;5041999;28;20186;-80
2022/03/07 11:16:44;;;;;;;5.85;1.70;;;22.60;99.90;;;;;;5039859;28;20187;-80
2022/03/07 11:19:16;;;;;;;5.35;1.50;;;22.60;99.90;;;;;;5043907;28;20199;-81
2022/03/07 11:21:50;;;;;;;3.25;1.30;;;22.60;99.90;;;;;;5050238;28;20247;-81
2022/03/07 11:24:22;;;;;;;1.77;0.82;;;22.50;99.90;;;;;;5051161;28;20243;-80
2022/03/07 11:26:55;;;;;;;4.57;1.20;;;22.40;99.90;;;;;;5041798;28;20190;-78
2022/03/07 11:29:38;;;;;;;3.75;1.08;;;22.30;99.90;;;;;;5044153;28;20214;-79
2022/03/07 11:32:11;;;;;;;2.90;1.30;;;22.30;99.90;;;;;;5038164;28;20703;-79
2022/03/07 11:34:52;;;;;;;5.38;1.70;;;22.30;99.90;;;;;;5047825;28;20186;-78
2022/03/07 11:37:24;;;;;;;3.97;1.30;;;22.30;99.90;;;;;;5039618;28;20603;-80
2022/03/07 11:39:56;;;;;;;2.47;1.08;;;22.20;99.90;;;;;;5040053;28;20198;-81
2022/03/07 11:42:35;;;;;;;3.65;1.00;;;22.20;99.90;;;;;;5052895;28;20189;-79
2022/03/07 11:45:16;;;;;;;4.75;1.20;;;22.20;99.90;;;;;;5040541;28;20194;-79
2022/03/07 11:47:47;;;;;;;6.30;1.70;;;22.20;99.90;;;;;;5044886;28;20248;-78
2022/03/07 11:50:21;;;;;;;2.40;1.13;;;22.20;99.90;;;;;;5046022;28;20226;-79
2022/03/07 11:52:52;;;;;;;3.72;1.10;;;22.20;99.90;;;;;;5046610;28;20316;-79
2022/03/07 11:55:23;;;;;;;2.45;0.82;;;22.20;99.90;;;;;;5046964;28;20194;-79
2022/03/07 11:58:05;;;;;;;3.30;1.00;;;22.20;99.90;;;;;;5051154;28;20186;-78
2022/03/07 12:00:37;;;;;;;2.97;1.02;;;22.10;99.90;;;;;;5045543;28;20202;-80
2022/03/07 12:03:15;;;;;;;4.50;1.10;;;22.10;99.90;;;;;;5041674;28;20186;-79
2022/03/07 12:05:46;;;;;;;2.28;1.13;;;22.10;99.90;;;;;;5038477;28;20259;-79
2022/03/07 12:08:18;;;;;;;4.15;1.30;;;22.10;99.90;;;;;;5043762;28;20186;-79
2022/03/07 12:10:57;;;;;;;5.57;1.20;;;22.10;99.90;;;;;;5043410;28;20214;-83
2022/03/07 12:13:28;;;;;;;3.97;1.45;;;22.00;99.90;;;;;;5049672;28;20190;-80
2022/03/07 12:16:01;;;;;;;4.28;1.20;;;22.00;99.90;;;;;;5049209;28;20282;-80
2022/03/07 12:18:32;;;;;;;4.80;1.23;;;22.00;99.90;;;;;;5043794;28;20193;-79
2022/03/07 12:21:04;;;;;;;7.20;1.55;;;22.00;99.90;;;;;;5047612;28;20703;-79
2022/03/07 12:23:36;;;;;;;4.68;1.70;;;22.00;99.90;;;;;;5056310;28;20243;-79
2022/03/07 12:26:08;;;;;;;7.20;1.83;;;22.00;99.90;;;;;;5036532;28;20191;-79
2022/03/07 12:28:43;;;;;;;5.88;1.63;;;22.00;99.90;;;;;;5036123;28;20597;-78
2022/03/07 12:31:16;;;;;;;7.60;1.60;;;22.00;99.90;;;;;;5037329;28;20190;-78
2022/03/07 12:33:48;;;;;;;4.65;1.40;;;22.00;99.90;;;;;;5044980;28;20188;-78
2022/03/07 12:36:19;;;;;;;4.60;1.65;;;22.10;99.90;;;;;;5056084;28;20248;-78
2022/03/07 12:38:51;;;;;;;5.72;1.70;;;22.10;99.90;;;;;;5043588;28;20236;-78
2022/03/07 12:41:29;;;;;;;7.43;1.40;;;22.10;99.90;;;;;;5045659;28;20202;-79
2022/03/07 12:44:00;;;;;;;10.15;1.80;;;22.10;99.90;;;;;;5055043;28;20592;-79
2022/03/07 12:46:33;;;;;;;6.15;1.70;;;22.10;99.90;;;;;;5049301;28;20186;-78
2022/03/07 12:49:03;;;;;;;5.35;1.65;;;22.10;99.90;;;;;;5049270;28;20213;-79
2022/03/07 12:51:36;;;;;;;6.20;1.67;;;22.00;99.90;;;;;;5040197;28;20202;-79
2022/03/07 12:54:07;;;;;;;6.32;1.98;;;22.00;99.90;;;;;;5043836;28;20222;-79
2022/03/07 12:56:42;;;;;;;7.45;1.88;;;22.00;99.90;;;;;;5047588;28;20637;-79
2022/03/07 12:59:13;;;;;;;5.55;1.80;;;22.00;99.90;;;;;;5043977;28;20200;-81
2022/03/07 13:01:53;;;;;;;7.50;1.75;;;22.00;99.90;;;;;;5038576;28;20187;-79
2022/03/07 13:04:26;;;;;;;7.80;1.88;;;22.00;99.90;;;;;;5040925;28;20237;-81